F\v Desperado — FVFQ — position and weather

sailwx.info

Track history (hours):
 
Tides and Currents Weather Stations Pressure Air Temp Water Temp Dewpoint Dewpoint Depression Visibility Wind Speed Wind Dir Waves Ship Positions

F\v Desperado

Last reported at 2017-Apr-26 23:28 UTC. Time now 2017-Apr-26 23:43 UTC.
Position N 47°20' W 002°31'.

Type: Fishing. MMSI: 228312000.

Date/timePositionNaut miles runAvg speedWind from/ knotsBaromVisibWave heightAir tempDewpointWater temp
2017-Apr-26 23:28N 47°20' W 002°31'2 3.3
2017-Apr-26 23:00N 47°20' W 002°33'4 7.4
2017-Apr-26 22:30N 47°19' W 002°39'4 7.5
2017-Apr-26 22:00N 47°18' W 002°43'4 7.4
2017-Apr-26 21:30N 47°16' W 002°48'3 6.9
2017-Apr-26 21:00N 47°14' W 002°53'3 7.0
2017-Apr-26 20:30N 47°13' W 002°57'3 6.9
2017-Apr-26 20:00N 47°12' W 003°02'4 7.2
2017-Apr-26 19:30N 47°11' W 003°07'12 0.3
2017-Apr-25 04:42N 47°00' W 003°16'2 9.1
2017-Apr-25 04:30N 47°01' W 003°13'5 9.1
2017-Apr-25 04:00N 47°03' W 003°07'7 8.9
2017-Apr-25 03:15N 47°06' W 002°58'2 9.0
2017-Apr-25 03:00N 47°06' W 002°55'6 8.8
2017-Apr-25 02:20N 47°09' W 002°47'5 8.3
2017-Apr-25 01:42N 47°11' W 002°40'2 8.3
2017-Apr-25 01:28N 47°12' W 002°39'4 8.7
2017-Apr-25 01:00N 47°16' W 002°36'4 8.6
2017-Apr-25 00:30N 47°20' W 002°32'2 3.0
2017-Apr-24 23:58N 47°21' W 002°31'0 0.0
2017-Apr-24 23:30N 47°21' W 002°31'3 5.3
2017-Apr-24 23:00N 47°19' W 002°34'7 8.5
2017-Apr-24 22:08N 47°13' W 002°39'1 9.3
2017-Apr-24 22:00N 47°11' W 002°40'4 8.6
2017-Apr-24 21:30N 47°10' W 002°45'4 8.3
2017-Apr-24 21:00N 47°08' W 002°51'4 8.2
2017-Apr-24 20:30N 47°06' W 002°57'4 8.2
2017-Apr-24 20:00N 47°05' W 003°02'5 8.0
2017-Apr-24 19:21N 47°03' W 003°09'3 7.3
2017-Apr-24 19:00N 47°02' W 003°13'15 3.7
2017-Apr-24 14:51N 46°54' W 003°32'1 0.5
2017-Apr-24 12:00N 46°54' W 003°30'1 2.8
2017-Apr-24 11:30N 46°54' W 003°32'1 2.8
2017-Apr-24 11:00N 46°55' W 003°31'2 2.3
2017-Apr-24 10:06N 46°53' W 003°31'1 3.3
2017-Apr-24 09:50N 46°53' W 003°33'1 3.6
2017-Apr-24 09:30N 46°54' W 003°34'1 2.0
2017-Apr-24 09:00N 46°55' W 003°32'1 1.6
2017-Apr-24 08:10N 46°53' W 003°32'0 3.1
2017-Apr-24 08:01N 46°54' W 003°32'2 2.7
2017-Apr-24 07:27N 46°55' W 003°32'0 0.2
2017-Apr-24 05:59N 46°55' W 003°32'2 3.2
2017-Apr-24 05:15N 46°57' W 003°31'1 4.0
2017-Apr-24 05:00N 46°58' W 003°31'4 7.4
2017-Apr-24 04:30N 47°02' W 003°33'5 8.8
2017-Apr-24 03:56N 47°06' W 003°36'4 8.7
2017-Apr-24 03:27N 47°10' W 003°39'4 8.3
2017-Apr-24 03:00N 47°14' W 003°40'4 8.5
2017-Apr-24 02:30N 47°18' W 003°42'4 8.6
2017-Apr-24 02:00N 47°22' W 003°44'5 8.4
2017-Apr-24 01:22N 47°27' W 003°47'3 8.6
2017-Apr-24 01:00N 47°30' W 003°48'4 8.6
2017-Apr-24 00:30N 47°34' W 003°51'12 1.2
2017-Apr-23 15:02N 47°45' W 003°55'3 8.5
2017-Apr-23 14:41N 47°42' W 003°55'6 8.4
2017-Apr-23 14:00N 47°37' W 003°52'4 8.3
2017-Apr-23 13:31N 47°33' W 003°50'4 8.4
2017-Apr-23 13:01N 47°29' W 003°48'4 8.4
2017-Apr-23 12:30N 47°25' W 003°45'5 8.4
2017-Apr-23 11:52N 47°20' W 003°43'25 1.5
2017-Apr-22 19:15N 46°56' W 003°33'1 3.5
2017-Apr-22 18:55N 46°58' W 003°33'4 0.6
2017-Apr-22 11:49N 46°54' W 003°29'1 3.7
2017-Apr-22 11:30N 46°56' W 003°29'4 2.6
2017-Apr-22 10:03N 46°54' W 003°34'1 4.2
2017-Apr-22 09:54N 46°54' W 003°33'2 3.9
2017-Apr-22 09:30N 46°54' W 003°31'1 2.2
2017-Apr-22 09:00N 46°55' W 003°30'1 2.2
2017-Apr-22 08:26N 46°55' W 003°32'1 2.9
2017-Apr-22 08:01N 46°54' W 003°32'2 3.3
2017-Apr-22 07:30N 46°53' W 003°29'2 3.4
2017-Apr-22 07:01N 46°53' W 003°27'2 3.5
2017-Apr-22 06:31N 46°54' W 003°24'2 3.6
2017-Apr-22 06:00N 46°54' W 003°22'2 3.9
2017-Apr-22 05:30N 46°54' W 003°19'4 7.5
2017-Apr-22 05:00N 46°56' W 003°14'4 8.7
2017-Apr-22 04:30N 46°59' W 003°09'4 8.9
2017-Apr-22 04:01N 47°01' W 003°04'4 8.9
2017-Apr-22 03:30N 47°04' W 002°58'4 8.9
2017-Apr-22 03:01N 47°06' W 002°53'4 8.9
2017-Apr-22 02:30N 47°09' W 002°48'4 8.8
2017-Apr-22 02:00N 47°11' W 002°42'4 8.4
2017-Apr-22 01:31N 47°14' W 002°38'4 8.9
2017-Apr-22 01:01N 47°18' W 002°35'4 3.2
2017-Apr-21 23:48N 47°21' W 002°31'2 8.0
2017-Apr-21 23:30N 47°19' W 002°34'4 7.8
2017-Apr-21 23:00N 47°16' W 002°36'4 8.2
2017-Apr-21 22:28N 47°12' W 002°40'4 8.9
2017-Apr-21 22:01N 47°10' W 002°45'4 8.8
2017-Apr-21 21:30N 47°09' W 002°51'4 8.6
2017-Apr-21 21:00N 47°07' W 002°57'4 8.6
2017-Apr-21 20:30N 47°04' W 003°02'11 0.7
2017-Apr-21 05:09N 46°57' W 003°14'2 8.4
2017-Apr-21 04:57N 46°58' W 003°12'4 8.8
2017-Apr-21 04:30N 46°60' W 003°07'4 8.6
2017-Apr-21 04:00N 47°02' W 003°01'4 8.8
2017-Apr-21 03:30N 47°04' W 002°56'4 8.9
2017-Apr-21 03:00N 47°07' W 002°50'4 8.9
2017-Apr-21 02:30N 47°09' W 002°45'4 8.7
2017-Apr-21 02:00N 47°11' W 002°40'5 8.6
2017-Apr-21 01:28N 47°15' W 002°37'4 8.8
2017-Apr-21 01:00N 47°19' W 002°34'2 1.9
2017-Apr-20 23:54N 47°20' W 002°31'3 8.1
2017-Apr-20 23:30N 47°18' W 002°35'6 8.6
2017-Apr-20 22:48N 47°13' W 002°39'2 8.1
2017-Apr-20 22:30N 47°11' W 002°41'4 8.5
2017-Apr-20 22:00N 47°10' W 002°47'4 8.2
2017-Apr-20 21:30N 47°09' W 002°53'4 8.2
2017-Apr-20 20:57N 47°08' W 002°59'4 8.2
2017-Apr-20 20:30N 47°06' W 003°05'20 1.2
2017-Apr-20 03:58N 47°11' W 003°34'4 7.4
2017-Apr-20 03:28N 47°14' W 003°36'4 7.5
2017-Apr-20 03:00N 47°17' W 003°38'4 7.5
2017-Apr-20 02:30N 47°21' W 003°41'4 7.5
2017-Apr-20 02:00N 47°24' W 003°43'4 7.7
2017-Apr-20 01:30N 47°28' W 003°45'4 7.8
2017-Apr-20 01:00N 47°31' W 003°48'  
Track history (hours):
 
Tides and Currents Weather Stations Pressure Air Temp Water Temp Dewpoint Dewpoint Depression Visibility Wind Speed Wind Dir Waves Ship Positions

F\v Desperado

Last reported at 2017-Apr-26 23:28 UTC. Time now 2017-Apr-26 23:43 UTC.
Position N 47°20' W 002°31'.

Type: Fishing. MMSI: 228312000.

Date/timePositionNaut miles runAvg speedWind from/ knotsBaromVisibWave heightAir tempDewpointWater temp
2017-Apr-26 23:28N 47°20' W 002°31'2 3.3
2017-Apr-26 23:00N 47°20' W 002°33'4 7.4
2017-Apr-26 22:30N 47°19' W 002°39'4 7.5
2017-Apr-26 22:00N 47°18' W 002°43'4 7.4
2017-Apr-26 21:30N 47°16' W 002°48'3 6.9
2017-Apr-26 21:00N 47°14' W 002°53'3 7.0
2017-Apr-26 20:30N 47°13' W 002°57'3 6.9
2017-Apr-26 20:00N 47°12' W 003°02'4 7.2
2017-Apr-26 19:30N 47°11' W 003°07'12 0.3
2017-Apr-25 04:42N 47°00' W 003°16'2 9.1
2017-Apr-25 04:30N 47°01' W 003°13'5 9.1
2017-Apr-25 04:00N 47°03' W 003°07'7 8.9
2017-Apr-25 03:15N 47°06' W 002°58'2 9.0
2017-Apr-25 03:00N 47°06' W 002°55'6 8.8
2017-Apr-25 02:20N 47°09' W 002°47'5 8.3
2017-Apr-25 01:42N 47°11' W 002°40'2 8.3
2017-Apr-25 01:28N 47°12' W 002°39'4 8.7
2017-Apr-25 01:00N 47°16' W 002°36'4 8.6
2017-Apr-25 00:30N 47°20' W 002°32'2 3.0
2017-Apr-24 23:58N 47°21' W 002°31'0 0.0
2017-Apr-24 23:30N 47°21' W 002°31'3 5.3
2017-Apr-24 23:00N 47°19' W 002°34'7 8.5
2017-Apr-24 22:08N 47°13' W 002°39'1 9.3
2017-Apr-24 22:00N 47°11' W 002°40'4 8.6
2017-Apr-24 21:30N 47°10' W 002°45'4 8.3
2017-Apr-24 21:00N 47°08' W 002°51'4 8.2
2017-Apr-24 20:30N 47°06' W 002°57'4 8.2
2017-Apr-24 20:00N 47°05' W 003°02'5 8.0
2017-Apr-24 19:21N 47°03' W 003°09'3 7.3
2017-Apr-24 19:00N 47°02' W 003°13'15 3.7
2017-Apr-24 14:51N 46°54' W 003°32'1 0.5
2017-Apr-24 12:00N 46°54' W 003°30'1 2.8
2017-Apr-24 11:30N 46°54' W 003°32'1 2.8
2017-Apr-24 11:00N 46°55' W 003°31'2 2.3
2017-Apr-24 10:06N 46°53' W 003°31'1 3.3
2017-Apr-24 09:50N 46°53' W 003°33'1 3.6
2017-Apr-24 09:30N 46°54' W 003°34'1 2.0
2017-Apr-24 09:00N 46°55' W 003°32'1 1.6
2017-Apr-24 08:10N 46°53' W 003°32'0 3.1
2017-Apr-24 08:01N 46°54' W 003°32'2 2.7
2017-Apr-24 07:27N 46°55' W 003°32'0 0.2
2017-Apr-24 05:59N 46°55' W 003°32'2 3.2
2017-Apr-24 05:15N 46°57' W 003°31'1 4.0
2017-Apr-24 05:00N 46°58' W 003°31'4 7.4
2017-Apr-24 04:30N 47°02' W 003°33'5 8.8
2017-Apr-24 03:56N 47°06' W 003°36'4 8.7
2017-Apr-24 03:27N 47°10' W 003°39'4 8.3
2017-Apr-24 03:00N 47°14' W 003°40'4 8.5
2017-Apr-24 02:30N 47°18' W 003°42'4 8.6
2017-Apr-24 02:00N 47°22' W 003°44'5 8.4
2017-Apr-24 01:22N 47°27' W 003°47'3 8.6
2017-Apr-24 01:00N 47°30' W 003°48'4 8.6
2017-Apr-24 00:30N 47°34' W 003°51'12 1.2
2017-Apr-23 15:02N 47°45' W 003°55'3 8.5
2017-Apr-23 14:41N 47°42' W 003°55'6 8.4
2017-Apr-23 14:00N 47°37' W 003°52'4 8.3
2017-Apr-23 13:31N 47°33' W 003°50'4 8.4
2017-Apr-23 13:01N 47°29' W 003°48'4 8.4
2017-Apr-23 12:30N 47°25' W 003°45'5 8.4
2017-Apr-23 11:52N 47°20' W 003°43'25 1.5
2017-Apr-22 19:15N 46°56' W 003°33'1 3.5
2017-Apr-22 18:55N 46°58' W 003°33'4 0.6
2017-Apr-22 11:49N 46°54' W 003°29'1 3.7
2017-Apr-22 11:30N 46°56' W 003°29'4 2.6
2017-Apr-22 10:03N 46°54' W 003°34'1 4.2
2017-Apr-22 09:54N 46°54' W 003°33'2 3.9
2017-Apr-22 09:30N 46°54' W 003°31'1 2.2
2017-Apr-22 09:00N 46°55' W 003°30'1 2.2
2017-Apr-22 08:26N 46°55' W 003°32'1 2.9
2017-Apr-22 08:01N 46°54' W 003°32'2 3.3
2017-Apr-22 07:30N 46°53' W 003°29'2 3.4
2017-Apr-22 07:01N 46°53' W 003°27'2 3.5
2017-Apr-22 06:31N 46°54' W 003°24'2 3.6
2017-Apr-22 06:00N 46°54' W 003°22'2 3.9
2017-Apr-22 05:30N 46°54' W 003°19'4 7.5
2017-Apr-22 05:00N 46°56' W 003°14'4 8.7
2017-Apr-22 04:30N 46°59' W 003°09'4 8.9
2017-Apr-22 04:01N 47°01' W 003°04'4 8.9
2017-Apr-22 03:30N 47°04' W 002°58'4 8.9
2017-Apr-22 03:01N 47°06' W 002°53'4 8.9
2017-Apr-22 02:30N 47°09' W 002°48'4 8.8
2017-Apr-22 02:00N 47°11' W 002°42'4 8.4
2017-Apr-22 01:31N 47°14' W 002°38'4 8.9
2017-Apr-22 01:01N 47°18' W 002°35'4 3.2
2017-Apr-21 23:48N 47°21' W 002°31'2 8.0
2017-Apr-21 23:30N 47°19' W 002°34'4 7.8
2017-Apr-21 23:00N 47°16' W 002°36'4 8.2
2017-Apr-21 22:28N 47°12' W 002°40'4 8.9
2017-Apr-21 22:01N 47°10' W 002°45'4 8.8
2017-Apr-21 21:30N 47°09' W 002°51'4 8.6
2017-Apr-21 21:00N 47°07' W 002°57'4 8.6
2017-Apr-21 20:30N 47°04' W 003°02'11 0.7
2017-Apr-21 05:09N 46°57' W 003°14'2 8.4
2017-Apr-21 04:57N 46°58' W 003°12'4 8.8
2017-Apr-21 04:30N 46°60' W 003°07'4 8.6
2017-Apr-21 04:00N 47°02' W 003°01'4 8.8
2017-Apr-21 03:30N 47°04' W 002°56'4 8.9
2017-Apr-21 03:00N 47°07' W 002°50'4 8.9
2017-Apr-21 02:30N 47°09' W 002°45'4 8.7
2017-Apr-21 02:00N 47°11' W 002°40'5 8.6
2017-Apr-21 01:28N 47°15' W 002°37'4 8.8
2017-Apr-21 01:00N 47°19' W 002°34'2 1.9
2017-Apr-20 23:54N 47°20' W 002°31'3 8.1
2017-Apr-20 23:30N 47°18' W 002°35'6 8.6
2017-Apr-20 22:48N 47°13' W 002°39'2 8.1
2017-Apr-20 22:30N 47°11' W 002°41'4 8.5
2017-Apr-20 22:00N 47°10' W 002°47'4 8.2
2017-Apr-20 21:30N 47°09' W 002°53'4 8.2
2017-Apr-20 20:57N 47°08' W 002°59'4 8.2
2017-Apr-20 20:30N 47°06' W 003°05'20 1.2
2017-Apr-20 03:58N 47°11' W 003°34'4 7.4
2017-Apr-20 03:28N 47°14' W 003°36'4 7.5
2017-Apr-20 03:00N 47°17' W 003°38'4 7.5
2017-Apr-20 02:30N 47°21' W 003°41'4 7.5
2017-Apr-20 02:00N 47°24' W 003°43'4 7.7
2017-Apr-20 01:30N 47°28' W 003°45'4 7.8
2017-Apr-20 01:00N 47°31' W 003°48'  

Dump ship's entire track history